createdAt,value
2022-09-21T00:00:47.524Z,101457.84
2022-09-21T00:03:15.549Z,101457.25
2022-09-21T00:05:43.527Z,101453.47
2022-09-21T00:08:13.845Z,101453.75
2022-09-21T00:10:42.837Z,101457.81
2022-09-21T00:13:13.392Z,101459.06
2022-09-21T00:15:41.812Z,101460.75
2022-09-21T00:18:11.320Z,101458.81
2022-09-21T00:20:43.489Z,101459.91
2022-09-21T00:23:11.653Z,101465.38
2022-09-21T00:25:39.324Z,101457.13
2022-09-21T00:28:08.297Z,101465.84
2022-09-21T00:30:35.909Z,101464.16
2022-09-21T00:33:03.496Z,101469.88
2022-09-21T00:35:31.199Z,101469.03
2022-09-21T00:38:01.969Z,101460.22
2022-09-21T00:40:30.100Z,101471.16
2022-09-21T00:43:15.561Z,101473.38
2022-09-21T00:45:44.112Z,101462.59
2022-09-21T00:48:11.937Z,101465.81
2022-09-21T00:50:45.360Z,101468.34
2022-09-21T00:53:13.044Z,101468.03
2022-09-21T00:55:44.285Z,101475.34
2022-09-21T00:58:18.046Z,101461.06
2022-09-21T01:00:45.649Z,101470.53
2022-09-21T01:03:14.371Z,101472.78
2022-09-21T01:05:42.004Z,101474.19
2022-09-21T01:08:13.000Z,101467.19
2022-09-21T01:10:57.020Z,101480.31
2022-09-21T01:13:35.130Z,101487.88
2022-09-21T01:16:10.112Z,101484.81
2022-09-21T01:18:44.883Z,101473.19
2022-09-21T01:21:20.046Z,101479.16
2022-09-21T01:24:09.858Z,101483.06
2022-09-21T01:27:00.360Z,101471.00
2022-09-21T01:29:34.059Z,101479.41
2022-09-21T01:32:07.951Z,101471.84
2022-09-21T01:34:40.400Z,101479.31
2022-09-21T01:37:14.249Z,101476.66
2022-09-21T01:39:45.883Z,101476.22
2022-09-21T01:42:15.831Z,101482.81
2022-09-21T01:44:47.145Z,101480.97
2022-09-21T01:47:17.299Z,101474.84
2022-09-21T01:49:49.797Z,101480.16
2022-09-21T01:52:22.326Z,101481.56
2022-09-21T01:54:54.606Z,101485.31
2022-09-21T01:57:35.772Z,101488.94
2022-09-21T02:00:06.760Z,101476.03
2022-09-21T02:02:51.022Z,101488.50
2022-09-21T02:05:21.054Z,101488.06
2022-09-21T02:07:49.782Z,101487.34
2022-09-21T02:10:21.786Z,101486.94
2022-09-21T02:12:51.731Z,101484.50
2022-09-21T02:15:25.818Z,101489.38
2022-09-21T02:18:02.007Z,101489.78
2022-09-21T02:20:33.429Z,101482.84
2022-09-21T02:23:08.255Z,101480.50
2022-09-21T02:25:47.361Z,101481.94
2022-09-21T02:28:27.568Z,101486.72
2022-09-21T02:31:02.354Z,101474.81
2022-09-21T02:33:33.435Z,101480.25
2022-09-21T02:36:08.619Z,101481.25
2022-09-21T02:38:40.284Z,101475.19
2022-09-21T02:41:16.897Z,101478.94
2022-09-21T02:43:49.670Z,101476.78
2022-09-21T02:46:25.280Z,101476.09
2022-09-21T02:48:58.705Z,101475.25
2022-09-21T02:51:32.209Z,101477.38
2022-09-21T02:54:03.294Z,101471.66
2022-09-21T02:56:32.863Z,101482.16
2022-09-21T02:59:04.326Z,101479.75
2022-09-21T03:01:34.947Z,101477.09
2022-09-21T03:04:03.428Z,101472.91
2022-09-21T03:06:31.370Z,101475.81
2022-09-21T03:08:59.043Z,101468.09
2022-09-21T03:11:27.072Z,101475.94
2022-09-21T03:13:54.799Z,101474.13
2022-09-21T03:16:22.806Z,101470.97
2022-09-21T03:18:52.069Z,101470.38
2022-09-21T03:21:19.658Z,101476.25
2022-09-21T03:23:47.222Z,101482.13
2022-09-21T03:26:14.844Z,101478.50
2022-09-21T03:28:42.440Z,101472.63
2022-09-21T03:31:10.107Z,101471.78
2022-09-21T03:33:37.736Z,101474.91
2022-09-21T03:36:07.042Z,101476.84
2022-09-21T03:38:34.820Z,101478.94
2022-09-21T03:41:02.452Z,101480.03
2022-09-21T03:43:30.502Z,101486.34
2022-09-21T03:45:58.263Z,101480.16
2022-09-21T03:48:26.005Z,101489.00
2022-09-21T03:50:53.912Z,101487.06
2022-09-21T03:53:23.037Z,101491.78
2022-09-21T03:55:50.903Z,101491.59
2022-09-21T03:58:18.464Z,101492.69
2022-09-21T04:00:46.281Z,101499.16
2022-09-21T04:03:13.872Z,101491.59
2022-09-21T04:05:41.508Z,101488.75
2022-09-21T04:08:10.005Z,101494.94
2022-09-21T04:10:42.136Z,101492.88
2022-09-21T04:13:09.863Z,101500.59
2022-09-21T04:15:37.501Z,101494.56
2022-09-21T04:18:05.369Z,101500.00
2022-09-21T04:20:33.175Z,101510.00
2022-09-21T04:23:00.819Z,101503.44
2022-09-21T04:25:30.859Z,101505.56
2022-09-21T04:27:59.796Z,101506.56
2022-09-21T04:30:27.424Z,101517.69
2022-09-21T04:32:55.045Z,101509.53
2022-09-21T04:35:22.649Z,101517.34
2022-09-21T04:37:50.180Z,101512.75
2022-09-21T04:40:17.947Z,101516.38
2022-09-21T04:42:45.586Z,101516.25
2022-09-21T04:45:14.499Z,101518.72
2022-09-21T04:47:42.127Z,101517.41
2022-09-21T04:50:10.626Z,101515.88
2022-09-21T04:52:38.279Z,101524.22
2022-09-21T04:55:06.827Z,101522.41
2022-09-21T04:57:35.731Z,101515.03
2022-09-21T05:00:04.154Z,101523.97
2022-09-21T05:02:33.288Z,101528.50
2022-09-21T05:05:00.959Z,101529.22
2022-09-21T05:07:28.547Z,101520.53
2022-09-21T05:10:04.222Z,101527.38
2022-09-21T05:12:32.267Z,101532.69
2022-09-21T05:14:59.914Z,101527.06
2022-09-21T05:17:27.612Z,101536.31
2022-09-21T05:19:56.583Z,101536.72
2022-09-21T05:22:24.184Z,101546.28
2022-09-21T05:24:51.780Z,101551.19
2022-09-21T05:27:19.340Z,101546.66
2022-09-21T05:29:47.520Z,101550.03
2022-09-21T05:32:21.811Z,101551.31
2022-09-21T05:35:01.626Z,101550.03
2022-09-21T05:37:46.572Z,101559.38
2022-09-21T05:40:15.426Z,101559.50
2022-09-21T05:42:43.825Z,101554.91
2022-09-21T05:45:15.519Z,101556.84
2022-09-21T05:47:55.098Z,101558.00
2022-09-21T05:50:49.844Z,101554.63
2022-09-21T05:53:30.952Z,101563.78
2022-09-21T05:56:00.755Z,101563.63
2022-09-21T05:58:38.119Z,101570.75
2022-09-21T06:01:21.806Z,101562.34
2022-09-21T06:03:50.168Z,101566.69
2022-09-21T06:06:19.975Z,101565.59
2022-09-21T06:08:47.608Z,101570.50
2022-09-21T06:11:15.733Z,101572.38
2022-09-21T06:13:43.728Z,101575.47
2022-09-21T06:16:11.750Z,101572.41
2022-09-21T06:18:40.181Z,101570.44
2022-09-21T06:21:09.094Z,101576.72
2022-09-21T06:23:38.665Z,101577.19
2022-09-21T06:26:06.563Z,101584.75
2022-09-21T06:28:34.311Z,101584.63
2022-09-21T06:31:01.995Z,101582.28
2022-09-21T06:33:29.697Z,101578.97
2022-09-21T06:35:58.836Z,101579.81
2022-09-21T06:38:27.984Z,101585.28
2022-09-21T06:40:56.986Z,101577.88
2022-09-21T06:43:24.588Z,101576.50
2022-09-21T06:45:56.121Z,101583.09
2022-09-21T06:48:24.196Z,101584.66
2022-09-21T06:50:51.920Z,101585.50
2022-09-21T06:53:19.926Z,101586.16
2022-09-21T06:55:47.526Z,101586.63
2022-09-21T06:58:16.498Z,101593.09
2022-09-21T07:00:44.154Z,101590.16
2022-09-21T07:03:12.995Z,101592.53
2022-09-21T07:05:40.878Z,101588.66
2022-09-21T07:10:04.887Z,101591.19
2022-09-21T07:10:59.278Z,101593.69
2022-09-21T07:13:28.645Z,101595.25
2022-09-21T07:15:56.673Z,101595.09
2022-09-21T07:18:24.558Z,101595.38
2022-09-21T07:20:52.341Z,101591.88
2022-09-21T07:23:22.235Z,101595.69
2022-09-21T07:25:52.319Z,101596.81
2022-09-21T07:28:20.618Z,101596.38
2022-09-21T07:30:49.800Z,101587.41
2022-09-21T07:33:17.583Z,101598.34
2022-09-21T07:35:52.194Z,101603.53
2022-09-21T07:38:20.630Z,101603.13
2022-09-21T07:40:48.743Z,101605.38
2022-09-21T07:43:17.911Z,101604.97
2022-09-21T07:45:55.765Z,101604.38
2022-09-21T07:48:23.642Z,101605.22
2022-09-21T07:50:51.230Z,101614.47
2022-09-21T07:53:18.840Z,101610.00
2022-09-21T07:55:46.392Z,101607.59
2022-09-21T07:58:31.764Z,101604.66
2022-09-21T08:01:01.186Z,101603.53
2022-09-21T08:03:28.764Z,101602.09
2022-09-21T08:05:56.453Z,101602.38
2022-09-21T08:08:24.038Z,101606.59
2022-09-21T08:10:52.962Z,101603.19
2022-09-21T08:13:20.575Z,101610.19
2022-09-21T08:15:50.218Z,101612.41
2022-09-21T08:18:19.528Z,101597.00
2022-09-21T08:20:55.292Z,101596.09
2022-09-21T08:23:22.896Z,101587.81
2022-09-21T08:25:51.263Z,101597.13
2022-09-21T08:28:19.479Z,101595.50
2022-09-21T08:30:47.135Z,101585.94
2022-09-21T08:33:14.775Z,101594.13
2022-09-21T08:35:43.801Z,101596.09
2022-09-21T08:38:11.383Z,101594.44
2022-09-21T08:40:41.810Z,101591.84
2022-09-21T08:43:13.563Z,101587.44
2022-09-21T08:45:44.600Z,101591.97
2022-09-21T08:48:22.895Z,101583.25
2022-09-21T08:50:58.594Z,101576.38
2022-09-21T08:53:29.296Z,101566.72
2022-09-21T08:55:57.486Z,101562.22
2022-09-21T08:58:26.595Z,101565.34
2022-09-21T09:01:08.995Z,101563.25
2022-09-21T09:03:54.640Z,101555.84
2022-09-21T09:06:33.259Z,101550.66
2022-09-21T09:09:15.602Z,101542.97
2022-09-21T09:11:56.293Z,101546.59
2022-09-21T09:14:47.834Z,101551.72
2022-09-21T09:17:32.623Z,101561.47
2022-09-21T09:20:04.396Z,101564.41
2022-09-21T09:22:37.881Z,101558.75
2022-09-21T09:25:13.463Z,101572.94
2022-09-21T09:27:45.492Z,101567.38
2022-09-21T09:30:18.446Z,101560.59
2022-09-21T09:32:53.443Z,101557.06
2022-09-21T09:35:27.805Z,101556.16
2022-09-21T09:38:00.924Z,101553.91
2022-09-21T09:40:45.501Z,101556.09
2022-09-21T09:43:23.806Z,101554.97
2022-09-21T09:46:02.798Z,101553.44
2022-09-21T09:48:43.012Z,101547.13
2022-09-21T09:51:13.263Z,101554.31
2022-09-21T09:53:42.247Z,101552.44
2022-09-21T09:56:11.556Z,101550.31
2022-09-21T09:58:46.332Z,101549.16
2022-09-21T10:01:39.394Z,101540.66
2022-09-21T10:04:09.072Z,101540.00
2022-09-21T10:06:39.342Z,101535.09
2022-09-21T10:09:24.953Z,101540.13
2022-09-21T10:11:54.069Z,101542.31
2022-09-21T10:14:24.826Z,101537.47
2022-09-21T10:16:54.434Z,101530.59
2022-09-21T10:19:24.410Z,101533.28
2022-09-21T10:21:58.170Z,101523.03
2022-09-21T10:24:30.473Z,101539.78
2022-09-21T10:27:05.541Z,101526.75
2022-09-21T10:29:41.016Z,101536.31
2022-09-21T10:32:21.722Z,101527.59
2022-09-21T10:35:15.467Z,101524.06
2022-09-21T10:37:46.325Z,101528.72
2022-09-21T10:40:30.563Z,101529.41
2022-09-21T10:43:00.470Z,101521.84
2022-09-21T10:45:30.148Z,101521.66
2022-09-21T10:47:59.815Z,101518.72
2022-09-21T10:50:30.384Z,101515.44
2022-09-21T10:53:01.966Z,101520.69
2022-09-21T10:55:33.021Z,101510.78
2022-09-21T10:58:01.491Z,101513.78
2022-09-21T11:00:35.504Z,101508.03
2022-09-21T11:03:28.567Z,101512.28
2022-09-21T11:05:58.754Z,101508.44
2022-09-21T11:08:33.175Z,101506.09
2022-09-21T11:11:18.986Z,101509.44
2022-09-21T11:13:54.298Z,101512.16
2022-09-21T11:16:30.363Z,101507.28
2022-09-21T11:19:04.729Z,101497.31
2022-09-21T11:21:41.691Z,101502.66
2022-09-21T11:24:21.563Z,101500.09
2022-09-21T11:26:55.552Z,101493.00
2022-09-21T11:29:28.764Z,101484.06
2022-09-21T11:32:07.041Z,101481.28
2022-09-21T11:35:09.319Z,101483.03
2022-09-21T11:37:52.382Z,101494.63
2022-09-21T11:40:33.047Z,101486.00
2022-09-21T11:43:15.923Z,101490.66
2022-09-21T11:46:06.798Z,101483.41
2022-09-21T11:48:53.348Z,101476.44
2022-09-21T11:51:40.979Z,101473.66
2022-09-21T11:54:32.147Z,101469.03
2022-09-21T11:57:08.212Z,101473.16
2022-09-21T11:59:49.376Z,101465.28
2022-09-21T12:02:37.127Z,101460.84
2022-09-21T12:05:12.908Z,101461.28
2022-09-21T12:07:58.217Z,101469.63
2022-09-21T12:10:39.472Z,101448.81
2022-09-21T12:13:15.992Z,101449.94
2022-09-21T12:15:50.905Z,101453.00
2022-09-21T12:18:27.369Z,101450.41
2022-09-21T12:21:02.957Z,101443.09
2022-09-21T12:23:39.452Z,101443.34
2022-09-21T12:26:08.598Z,101435.81
2022-09-21T12:28:40.595Z,101436.66
2022-09-21T12:31:15.543Z,101440.75
2022-09-21T12:33:50.087Z,101439.66
2022-09-21T12:36:21.936Z,101439.19
2022-09-21T12:38:54.525Z,101432.06
2022-09-21T12:41:34.324Z,101434.44
2022-09-21T12:44:13.397Z,101429.81
2022-09-21T12:46:51.149Z,101424.69
2022-09-21T12:49:24.721Z,101426.72
2022-09-21T12:51:57.075Z,101419.91
2022-09-21T12:54:38.009Z,101425.00
2022-09-21T12:57:29.810Z,101418.78
2022-09-21T13:00:06.149Z,101416.50
2022-09-21T13:05:16.840Z,101413.81
2022-09-21T13:08:09.353Z,101408.19
2022-09-21T13:10:44.518Z,101399.63
2022-09-21T13:13:28.285Z,101402.31
2022-09-21T13:15:59.064Z,101412.38
2022-09-21T13:18:35.797Z,101397.66
2022-09-21T13:21:17.467Z,101402.22
2022-09-21T13:23:52.195Z,101400.03
2022-09-21T13:26:32.599Z,101400.28
2022-09-21T13:29:07.688Z,101401.03
2022-09-21T13:31:57.384Z,101403.69
2022-09-21T13:34:35.089Z,101398.25
2022-09-21T13:37:27.395Z,101387.75
2022-09-21T13:40:40.131Z,101391.97
2022-09-21T13:43:31.792Z,101388.06
2022-09-21T13:45:59.573Z,101385.16
2022-09-21T13:48:30.308Z,101380.22
2022-09-21T13:51:01.718Z,101378.06
2022-09-21T13:53:35.762Z,101380.97
2022-09-21T13:56:09.770Z,101367.03
2022-09-21T13:58:43.992Z,101372.16
2022-09-21T14:01:42.365Z,101378.50
2022-09-21T14:04:19.318Z,101374.25
2022-09-21T14:06:54.158Z,101367.03
2022-09-21T14:09:25.870Z,101364.69
2022-09-21T14:12:00.256Z,101360.22
2022-09-21T14:14:31.082Z,101354.38
2022-09-21T14:17:00.217Z,101353.91
2022-09-21T14:20:05.177Z,101355.09
2022-09-21T14:22:42.063Z,101359.47
2022-09-21T14:25:48.807Z,101349.91
2022-09-21T14:28:18.389Z,101360.84
2022-09-21T14:30:55.329Z,101355.59
2022-09-21T14:33:30.043Z,101356.97
2022-09-21T14:35:58.985Z,101349.81
2022-09-21T14:38:30.623Z,101356.84
2022-09-21T14:41:02.241Z,101355.00
2022-09-21T14:43:35.125Z,101347.00
2022-09-21T14:46:16.681Z,101350.44
2022-09-21T14:48:56.571Z,101347.25
2022-09-21T14:51:36.439Z,101338.09
2022-09-21T14:54:34.475Z,101340.09
2022-09-21T14:57:34.850Z,101341.19
2022-09-21T15:00:20.946Z,101331.47
2022-09-21T15:02:51.972Z,101333.22
2022-09-21T15:05:31.072Z,101333.84
2022-09-21T15:08:38.360Z,101327.53
2022-09-21T15:11:15.953Z,101323.00
2022-09-21T15:13:53.478Z,101331.16
2022-09-21T15:16:37.903Z,101326.06
2022-09-21T15:19:22.881Z,101324.56
2022-09-21T15:21:52.475Z,101319.91
2022-09-21T15:24:29.517Z,101323.59
2022-09-21T15:27:08.210Z,101322.09
2022-09-21T15:29:36.963Z,101314.75
2022-09-21T15:32:06.314Z,101317.63
2022-09-21T15:34:34.031Z,101315.94
2022-09-21T15:37:13.257Z,101314.94
2022-09-21T15:39:41.341Z,101307.22
2022-09-21T15:42:22.702Z,101308.22
2022-09-21T15:44:55.218Z,101308.56
2022-09-21T15:47:25.941Z,101308.19
2022-09-21T15:49:56.144Z,101306.88
2022-09-21T15:52:33.842Z,101311.03
2022-09-21T15:55:09.189Z,101311.63
2022-09-21T15:57:41.282Z,101317.34
2022-09-21T16:00:21.398Z,101304.81
2022-09-21T16:03:07.465Z,101308.50
2022-09-21T16:05:46.965Z,101320.56
2022-09-21T16:08:31.222Z,101315.06
2022-09-21T16:11:23.152Z,101316.44
2022-09-21T16:14:17.311Z,101313.91
2022-09-21T16:17:08.072Z,101314.91
2022-09-21T16:19:41.968Z,101323.84
2022-09-21T16:22:12.472Z,101327.91
2022-09-21T16:24:46.077Z,101328.75
2022-09-21T16:27:18.262Z,101327.91
2022-09-21T16:29:49.772Z,101337.47
2022-09-21T16:32:27.368Z,101334.78
2022-09-21T16:35:19.607Z,101343.81
2022-09-21T16:37:47.231Z,101338.00
2022-09-21T16:40:15.123Z,101342.53
2022-09-21T16:42:43.130Z,101341.00
2022-09-21T16:45:23.594Z,101345.38
2022-09-21T16:47:54.084Z,101343.19
2022-09-21T16:50:21.695Z,101346.94
2022-09-21T16:52:52.473Z,101349.56
2022-09-21T16:55:20.095Z,101347.38
2022-09-21T16:57:49.911Z,101341.72
2022-09-21T17:00:22.057Z,101343.72
2022-09-21T17:02:50.278Z,101347.94
2022-09-21T17:05:19.264Z,101346.75
2022-09-21T17:07:53.015Z,101346.44
2022-09-21T17:10:24.164Z,101348.59
2022-09-21T17:12:53.944Z,101349.78
2022-09-21T17:15:23.800Z,101349.78
2022-09-21T17:17:51.422Z,101353.50
2022-09-21T17:20:30.907Z,101361.19
2022-09-21T17:22:58.666Z,101361.88
2022-09-21T17:25:27.648Z,101362.19
2022-09-21T17:27:57.964Z,101352.00
2022-09-21T17:30:28.192Z,101358.53
2022-09-21T17:32:58.277Z,101359.84
2022-09-21T17:35:31.877Z,101354.50
2022-09-21T17:38:00.298Z,101356.53
2022-09-21T17:40:29.781Z,101361.53
2022-09-21T17:43:11.919Z,101353.50
2022-09-21T17:45:46.840Z,101351.19
2022-09-21T17:48:19.994Z,101358.69
2022-09-21T17:50:48.457Z,101355.50
2022-09-21T17:53:33.878Z,101362.22
2022-09-21T17:56:25.661Z,101361.22
2022-09-21T17:58:59.134Z,101361.69
2022-09-21T18:01:33.709Z,101366.22
2022-09-21T18:04:02.019Z,101368.25
2022-09-21T18:06:31.420Z,101366.72
2022-09-21T18:08:59.643Z,101371.25
2022-09-21T18:11:56.506Z,101371.41
2022-09-21T18:14:35.498Z,101371.56
2022-09-21T18:17:20.735Z,101378.25
2022-09-21T18:20:03.636Z,101384.59
2022-09-21T18:22:40.490Z,101377.03
2022-09-21T18:25:16.350Z,101383.41
2022-09-21T18:27:47.999Z,101383.41
2022-09-21T18:30:17.659Z,101388.75
2022-09-21T18:32:56.975Z,101387.25
2022-09-21T18:35:38.633Z,101388.59
2022-09-21T18:38:18.503Z,101388.59
2022-09-21T18:41:08.660Z,101391.59
2022-09-21T18:43:46.245Z,101394.59
2022-09-21T18:46:17.914Z,101395.91
2022-09-21T18:48:59.987Z,101391.06
2022-09-21T18:51:35.225Z,101392.03
2022-09-21T18:54:03.475Z,101405.56
2022-09-21T18:56:35.263Z,101401.75
2022-09-21T18:59:03.757Z,101403.59
2022-09-21T19:01:33.894Z,101406.41
2022-09-21T19:04:04.148Z,101398.06
2022-09-21T19:06:44.554Z,101408.53
2022-09-21T19:09:35.455Z,101406.19
2022-09-21T19:12:14.002Z,101403.13
2022-09-21T19:14:51.039Z,101399.44
2022-09-21T19:17:32.160Z,101406.78
2022-09-21T19:20:13.210Z,101415.16
2022-09-21T19:22:48.222Z,101406.41
2022-09-21T19:25:24.758Z,101405.72
2022-09-21T19:27:58.267Z,101412.75
2022-09-21T19:30:26.752Z,101408.06
2022-09-21T19:32:57.986Z,101413.00
2022-09-21T19:35:28.928Z,101409.34
2022-09-21T19:37:58.388Z,101408.84
2022-09-21T19:40:28.195Z,101412.31
2022-09-21T19:43:14.192Z,101413.13
2022-09-21T19:45:56.157Z,101415.28
2022-09-21T19:48:28.481Z,101407.50
2022-09-21T19:50:58.839Z,101405.47
2022-09-21T19:53:45.100Z,101405.75
2022-09-21T19:56:35.125Z,101405.47
2022-09-21T19:59:20.940Z,101405.47
2022-09-21T20:01:54.678Z,101414.25
2022-09-21T20:04:28.247Z,101404.72
2022-09-21T20:07:03.111Z,101409.91
2022-09-21T20:09:36.901Z,101399.38
2022-09-21T20:12:15.105Z,101406.84
2022-09-21T20:14:50.353Z,101416.53
2022-09-21T20:17:22.730Z,101414.16
2022-09-21T20:19:56.955Z,101411.81
2022-09-21T20:22:34.644Z,101406.41
2022-09-21T20:25:07.974Z,101397.34
2022-09-21T20:27:39.851Z,101392.75
2022-09-21T20:30:10.017Z,101401.94
2022-09-21T20:32:40.289Z,101403.69
2022-09-21T20:35:15.941Z,101404.00
2022-09-21T20:37:45.293Z,101401.47
2022-09-21T20:40:13.868Z,101396.47
2022-09-21T20:42:42.330Z,101397.81
2022-09-21T20:45:11.731Z,101402.94
2022-09-21T20:47:39.750Z,101401.69
2022-09-21T20:50:12.109Z,101394.84
2022-09-21T20:52:42.104Z,101400.41
2022-09-21T20:55:13.484Z,101400.31
2022-09-21T20:57:41.304Z,101399.78
2022-09-21T21:00:11.271Z,101405.81
2022-09-21T21:02:38.966Z,101408.63
2022-09-21T21:05:08.238Z,101406.53
2022-09-21T21:07:36.377Z,101402.31
2022-09-21T21:10:04.951Z,101407.66
2022-09-21T21:12:33.969Z,101405.75
2022-09-21T21:15:01.581Z,101402.94
2022-09-21T21:17:29.204Z,101401.84
2022-09-21T21:19:56.998Z,101394.28
2022-09-21T21:22:24.594Z,101402.59
2022-09-21T21:24:52.586Z,101392.59
2022-09-21T21:27:22.206Z,101403.88
2022-09-21T21:29:52.908Z,101401.81
2022-09-21T21:32:23.685Z,101406.72
2022-09-21T21:34:51.987Z,101401.72
2022-09-21T21:37:20.967Z,101403.38
2022-09-21T21:39:48.793Z,101396.38
2022-09-21T21:42:16.386Z,101402.53
2022-09-21T21:44:44.031Z,101396.50
2022-09-21T21:47:38.156Z,101397.63
2022-09-21T21:50:00.745Z,101405.16
2022-09-21T21:52:28.310Z,101393.78
2022-09-21T21:54:55.954Z,101395.63
2022-09-21T21:57:23.608Z,101395.38
2022-09-21T21:59:51.203Z,101387.59
2022-09-21T22:02:20.293Z,101389.19
2022-09-21T22:04:47.924Z,101385.53
2022-09-21T22:07:15.510Z,101390.69
2022-09-21T22:09:43.114Z,101397.31
2022-09-21T22:12:11.144Z,101395.63
2022-09-21T22:14:38.747Z,101391.00
2022-09-21T22:17:06.306Z,101388.34
2022-09-21T22:19:35.347Z,101392.38
2022-09-21T22:22:02.962Z,101387.50
2022-09-21T22:24:30.656Z,101392.56
2022-09-21T22:26:58.310Z,101391.72
2022-09-21T22:29:25.889Z,101382.19
2022-09-21T22:31:55.109Z,101387.25
2022-09-21T22:34:22.940Z,101384.28
2022-09-21T22:36:51.879Z,101384.88
2022-09-21T22:39:19.487Z,101395.41
2022-09-21T22:41:47.161Z,101394.84
2022-09-21T22:44:14.750Z,101385.06
2022-09-21T22:46:42.550Z,101388.16
2022-09-21T22:49:10.150Z,101388.44
2022-09-21T22:51:38.119Z,101392.09
2022-09-21T22:54:07.374Z,101393.38
2022-09-21T22:56:35.805Z,101393.25
2022-09-21T22:59:05.031Z,101390.84
2022-09-21T23:01:35.121Z,101392.78
2022-09-21T23:04:04.693Z,101385.38
2022-09-21T23:06:35.454Z,101387.75
2022-09-21T23:09:06.646Z,101388.31
2022-09-21T23:11:37.320Z,101390.16
2022-09-21T23:14:05.306Z,101397.59
2022-09-21T23:16:33.029Z,101386.38
2022-09-21T23:19:00.953Z,101394.63
2022-09-21T23:21:30.412Z,101390.00
2022-09-21T23:24:00.501Z,101382.88
2022-09-21T23:26:30.310Z,101382.28
2022-09-21T23:29:01.507Z,101378.97
2022-09-21T23:31:29.958Z,101384.41
2022-09-21T23:34:00.013Z,101384.97
2022-09-21T23:36:31.487Z,101386.25
2022-09-21T23:38:59.571Z,101384.41
2022-09-21T23:41:29.218Z,101383.97
2022-09-21T23:43:57.984Z,101378.25
2022-09-21T23:46:29.624Z,101377.53
2022-09-21T23:48:58.171Z,101375.28
2022-09-21T23:51:26.586Z,101372.94
2022-09-21T23:53:54.677Z,101369.53
2022-09-21T23:56:23.962Z,101371.22
2022-09-21T23:58:52.270Z,101370.13
